ハルツーム の空港の天気 - METARとTAF

ハルツーム国際空港 ( HSSS / KRT ) - スーダン ハルツーム
飛行場実況気象(Metar)
観測時間12/14 08:00 CAT (12/14 06:00 UTC)
風向・風速北北西 4m/s
視程10km以上
天気現象
なし
気温20℃
湿度26%
気圧1019hPa
METARHSSS 140600Z 34007KT CAVOK 20/00 Q1019 NOSIG
過去の天気等 Google飛行場航空写真 Wunderground天気予報

過去48時間のMETAR

飛行場予報(TAF)
発表時間: 12/14 07:00 CAT (12/14 05:00 UTC)
予報対象時間: 14日8時 CAT ~ 15日14時 CAT
風向・風速北 5m/s 瞬間風速 10m/s
視程10km以上
なし
TAF HSSS 140500Z 1406/1512 36010G20KT CAVOK